createdAt,value
2022-11-02T00:03:03.482Z,87.27
2022-11-02T00:08:07.487Z,87.08
2022-11-02T00:13:17.391Z,87.35
2022-11-02T00:18:20.880Z,87.43
2022-11-02T00:23:25.015Z,87.76
2022-11-02T00:28:30.837Z,87.80
2022-11-02T00:33:34.134Z,87.71
2022-11-02T00:38:37.585Z,87.74
2022-11-02T00:43:40.933Z,88.07
2022-11-02T00:48:44.625Z,88.43
2022-11-02T00:53:48.425Z,87.82
2022-11-02T00:58:51.910Z,87.86
2022-11-02T01:03:57.512Z,88.13
2022-11-02T01:09:00.979Z,88.50
2022-11-02T01:14:04.669Z,88.69
2022-11-02T01:19:08.771Z,89.02
2022-11-02T01:24:12.249Z,89.72
2022-11-02T01:29:15.721Z,89.63
2022-11-02T01:34:19.240Z,89.38
2022-11-02T01:39:22.644Z,89.08
2022-11-02T01:44:41.367Z,89.07
2022-11-02T01:49:50.173Z,89.04
2022-11-02T01:55:00.999Z,89.43
2022-11-02T02:00:10.728Z,89.68
2022-11-02T02:05:18.164Z,89.61
2022-11-02T02:10:21.737Z,89.28
2022-11-02T02:15:31.254Z,89.09
2022-11-02T02:21:06.281Z,89.64
2022-11-02T02:26:28.531Z,89.80
2022-11-02T02:31:50.180Z,89.82
2022-11-02T02:36:59.112Z,89.74
2022-11-02T02:42:29.111Z,89.59
2022-11-02T02:47:33.870Z,89.66
2022-11-02T02:52:38.294Z,89.86
2022-11-02T02:57:41.746Z,90.03
2022-11-02T03:03:01.472Z,89.52
2022-11-02T03:08:09.256Z,89.69
2022-11-02T03:13:42.859Z,89.67
2022-11-02T03:18:53.328Z,89.42
2022-11-02T03:24:30.572Z,89.86
2022-11-02T03:29:37.561Z,90.13
2022-11-02T03:34:47.295Z,90.63
2022-11-02T03:40:16.970Z,90.85
2022-11-02T03:45:23.785Z,90.57
2022-11-02T03:50:31.997Z,90.59
2022-11-02T03:55:42.457Z,90.60
2022-11-02T04:01:07.949Z,90.54
2022-11-02T04:06:13.784Z,90.37
2022-11-02T04:11:42.487Z,90.53
2022-11-02T04:17:17.261Z,90.60
2022-11-02T04:22:45.456Z,90.68
2022-11-02T04:27:52.409Z,90.94
2022-11-02T04:33:17.841Z,91.07
2022-11-02T04:38:41.254Z,91.27
2022-11-02T04:43:49.413Z,91.53
2022-11-02T04:48:53.818Z,91.52
2022-11-02T04:54:00.557Z,91.55
2022-11-02T04:59:06.439Z,91.61
2022-11-02T05:04:12.005Z,91.58
2022-11-02T05:09:16.178Z,91.36
2022-11-02T05:14:21.630Z,91.52
2022-11-02T05:19:25.323Z,91.71
2022-11-02T05:24:29.062Z,92.04
2022-11-02T05:29:32.880Z,91.90
2022-11-02T05:34:36.729Z,91.46
2022-11-02T05:39:44.034Z,91.47
2022-11-02T05:44:50.018Z,91.42
2022-11-02T05:49:53.690Z,91.45
2022-11-02T05:54:57.031Z,91.43
2022-11-02T06:00:00.289Z,91.44
2022-11-02T06:05:04.086Z,91.39
2022-11-02T06:10:08.521Z,91.43
2022-11-02T06:15:12.489Z,91.59
2022-11-02T06:25:42.252Z,91.80
2022-11-02T06:30:52.997Z,92.07
2022-11-02T06:35:57.128Z,92.36
2022-11-02T06:41:07.096Z,92.18
2022-11-02T06:46:13.479Z,92.19
2022-11-02T06:51:16.950Z,92.30
2022-11-02T06:56:21.018Z,92.37
2022-11-02T07:01:24.562Z,92.50
2022-11-02T07:06:28.080Z,92.80
2022-11-02T07:11:31.508Z,92.89
2022-11-02T07:16:34.979Z,92.76
2022-11-02T07:21:41.349Z,92.77
2022-11-02T07:26:53.731Z,92.79
2022-11-02T07:31:57.721Z,91.75
2022-11-02T07:37:01.625Z,91.26
2022-11-02T07:42:07.616Z,89.94
2022-11-02T07:47:11.560Z,89.74
2022-11-02T07:52:15.541Z,89.68
2022-11-02T07:57:25.934Z,89.67
2022-11-02T08:02:29.761Z,90.21
2022-11-02T08:07:33.528Z,90.45
2022-11-02T08:12:38.008Z,90.67
2022-11-02T08:17:44.668Z,90.65
2022-11-02T08:22:51.146Z,90.41
2022-11-02T08:28:00.735Z,89.72
2022-11-02T08:33:11.795Z,90.00
2022-11-02T08:38:19.091Z,89.82
2022-11-02T08:43:24.983Z,88.92
2022-11-02T08:48:29.634Z,88.65
2022-11-02T08:53:33.919Z,87.86
2022-11-02T08:58:38.796Z,86.76
2022-11-02T09:03:46.358Z,83.11
2022-11-02T09:09:03.343Z,82.15
2022-11-02T09:14:21.273Z,81.16
2022-11-02T09:19:51.049Z,80.47
2022-11-02T09:24:55.221Z,79.01
2022-11-02T09:30:10.161Z,77.68
2022-11-02T09:35:17.144Z,74.92
2022-11-02T09:40:39.201Z,75.55
2022-11-02T09:46:00.233Z,73.04
2022-11-02T09:51:48.865Z,71.86
2022-11-02T09:57:02.680Z,68.92
2022-11-02T10:02:19.805Z,68.43
2022-11-02T10:07:30.911Z,67.01
2022-11-02T10:12:43.527Z,66.62
2022-11-02T10:18:08.482Z,65.23
2022-11-02T10:23:43.870Z,64.64
2022-11-02T10:28:49.355Z,64.09
2022-11-02T10:33:58.398Z,64.68
2022-11-02T10:39:13.259Z,62.86
2022-11-02T10:44:42.218Z,61.70
2022-11-02T10:50:14.554Z,62.37
2022-11-02T10:55:26.317Z,60.89
2022-11-02T11:00:33.282Z,60.53
2022-11-02T11:05:56.863Z,61.67
2022-11-02T11:11:38.490Z,61.82
2022-11-02T11:16:44.783Z,61.14
2022-11-02T11:21:50.570Z,61.53
2022-11-02T11:27:04.857Z,61.63
2022-11-02T11:32:18.274Z,60.31
2022-11-02T11:37:21.997Z,59.92
2022-11-02T11:42:28.732Z,59.36
2022-11-02T11:47:38.558Z,59.39
2022-11-02T11:52:46.828Z,59.69
2022-11-02T11:58:15.193Z,59.70
2022-11-02T12:03:18.895Z,60.22
2022-11-02T12:08:32.586Z,59.34
2022-11-02T12:13:39.195Z,59.36
2022-11-02T12:19:02.373Z,58.64
2022-11-02T12:24:27.806Z,59.09
2022-11-02T12:29:59.268Z,59.30
2022-11-02T12:35:28.763Z,59.23
2022-11-02T12:40:49.608Z,60.18
2022-11-02T12:46:16.112Z,59.32
2022-11-02T12:51:22.609Z,58.91
2022-11-02T12:56:44.765Z,60.19
2022-11-02T13:01:53.102Z,58.33
2022-11-02T13:07:02.298Z,58.41
2022-11-02T13:12:21.174Z,57.77
2022-11-02T13:17:41.462Z,58.13
2022-11-02T13:22:48.242Z,59.32
2022-11-02T13:28:20.162Z,60.19
2022-11-02T13:33:35.030Z,60.05
2022-11-02T13:38:49.728Z,60.48
2022-11-02T13:44:17.621Z,61.10
2022-11-02T13:49:30.398Z,61.58
2022-11-02T13:54:42.257Z,62.06
2022-11-02T13:59:53.705Z,62.27
2022-11-02T14:05:01.695Z,62.42
2022-11-02T14:10:12.256Z,62.66
2022-11-02T14:15:24.506Z,62.99
2022-11-02T14:20:35.784Z,63.09
2022-11-02T14:25:50.544Z,63.25
2022-11-02T14:31:05.782Z,63.33
2022-11-02T14:36:42.470Z,63.58
2022-11-02T14:42:04.638Z,63.19
2022-11-02T14:47:13.743Z,62.44
2022-11-02T14:52:29.774Z,62.79
2022-11-02T14:58:02.045Z,63.07
2022-11-02T15:03:31.653Z,63.52
2022-11-02T15:08:53.430Z,64.12
2022-11-02T15:14:54.079Z,64.81
2022-11-02T15:20:21.636Z,65.45
2022-11-02T15:25:41.207Z,66.14
2022-11-02T15:31:23.175Z,66.31
2022-11-02T15:36:57.728Z,66.62
2022-11-02T15:42:33.240Z,67.05
2022-11-02T15:47:57.075Z,67.27
2022-11-02T15:53:23.655Z,67.55
2022-11-02T15:59:17.394Z,67.93
2022-11-02T16:04:21.895Z,68.43
2022-11-02T16:09:40.979Z,68.59
2022-11-02T16:15:30.538Z,68.95
2022-11-02T16:20:48.633Z,68.90
2022-11-02T16:26:39.677Z,69.34
2022-11-02T16:32:00.734Z,69.59
2022-11-02T16:37:53.429Z,69.49
2022-11-02T16:43:32.251Z,69.53
2022-11-02T16:49:22.704Z,69.98
2022-11-02T16:54:45.533Z,70.19
2022-11-02T17:00:10.260Z,70.34
2022-11-02T17:05:44.505Z,70.55
2022-11-02T17:10:54.059Z,71.10
2022-11-02T17:16:11.800Z,71.63
2022-11-02T17:21:27.042Z,71.74
2022-11-02T17:26:42.093Z,72.08
2022-11-02T17:31:54.143Z,71.94
2022-11-02T17:37:03.822Z,72.47
2022-11-02T17:42:27.869Z,72.62
2022-11-02T17:47:31.417Z,73.55
2022-11-02T17:52:34.793Z,74.21
2022-11-02T17:57:38.717Z,74.06
2022-11-02T18:02:46.949Z,74.30
2022-11-02T18:07:51.084Z,74.78
2022-11-02T18:12:57.871Z,74.94
2022-11-02T18:18:15.457Z,75.14
2022-11-02T18:23:25.019Z,75.42
2022-11-02T18:28:28.613Z,75.60
2022-11-02T18:33:36.450Z,75.72
2022-11-02T18:38:45.530Z,76.35
2022-11-02T18:43:51.440Z,76.93
2022-11-02T18:49:07.248Z,77.07
2022-11-02T18:54:11.373Z,76.62
2022-11-02T18:59:20.204Z,76.80
2022-11-02T19:04:26.959Z,76.83
2022-11-02T19:09:42.052Z,77.14
2022-11-02T19:14:52.479Z,78.04
2022-11-02T19:20:00.549Z,77.84
2022-11-02T19:25:09.526Z,77.86
2022-11-02T19:30:31.414Z,78.25
2022-11-02T19:35:53.280Z,78.10
2022-11-02T19:41:36.954Z,78.47
2022-11-02T19:51:57.707Z,78.40
2022-11-02T19:57:33.231Z,78.38
2022-11-02T20:02:54.099Z,77.53
2022-11-02T20:08:13.943Z,77.86
2022-11-02T20:19:20.503Z,78.65
2022-11-02T20:24:34.975Z,78.47
2022-11-02T20:29:49.985Z,78.64
2022-11-02T20:41:21.918Z,78.63
2022-11-02T20:47:00.357Z,78.92
2022-11-02T20:52:28.158Z,78.94
2022-11-02T20:57:43.185Z,78.97
2022-11-02T21:02:59.770Z,79.05
2022-11-02T21:08:09.881Z,79.22
2022-11-02T21:13:38.735Z,79.50
2022-11-02T21:19:06.690Z,79.71
2022-11-02T21:24:17.839Z,80.10
2022-11-02T21:29:23.341Z,80.36
2022-11-02T21:34:39.623Z,80.31
2022-11-02T21:39:55.166Z,80.39
2022-11-02T21:44:58.774Z,80.50
2022-11-02T21:50:06.775Z,80.72
2022-11-02T21:55:11.370Z,80.96
2022-11-02T22:00:20.765Z,81.25
2022-11-02T22:05:51.214Z,80.91
2022-11-02T22:10:57.842Z,80.75
2022-11-02T22:16:35.255Z,80.70
2022-11-02T22:21:43.496Z,80.69
2022-11-02T22:26:47.651Z,80.96
2022-11-02T22:31:54.152Z,81.07
2022-11-02T22:37:19.813Z,81.18
2022-11-02T22:42:38.216Z,80.99
2022-11-02T22:47:50.541Z,81.25
2022-11-02T22:52:59.735Z,82.00
2022-11-02T22:58:03.270Z,82.46
2022-11-02T23:03:07.041Z,82.25
2022-11-02T23:08:11.413Z,82.30
2022-11-02T23:13:14.913Z,82.90
2022-11-02T23:18:18.713Z,84.11
2022-11-02T23:23:42.672Z,83.62
2022-11-02T23:29:04.833Z,83.05
2022-11-02T23:34:08.882Z,82.92
2022-11-02T23:39:31.554Z,82.61
2022-11-02T23:44:35.555Z,82.11
2022-11-02T23:49:42.417Z,82.50
2022-11-02T23:55:04.670Z,82.66
